Time;durP1;ratioP1;P1;durP2;ratioP2;P2;SDS_P1;SDS_P2;PMS_P1;PMS_P2;Temp;Humidity;BMP_temperature;BMP_pressure;BME280_temperature;BME280_humidity;BME280_pressure;Samples;Min_cycle;Max_cycle;Signal;HPM_P1;HPM_P2
2022/07/17 00:00:42;;;;;;;5.97;2.50;;;14.50;91.20;;;;;;5076200;28;20177;-74
2022/07/17 00:03:12;;;;;;;3.10;1.80;;;14.50;91.00;;;;;;5076550;28;20412;-77
2022/07/17 00:05:38;;;;;;;4.20;1.87;;;14.40;91.20;;;;;;5076223;28;20416;-77
2022/07/17 00:08:08;;;;;;;7.57;1.80;;;14.40;91.30;;;;;;5073624;28;20476;-78
2022/07/17 00:10:35;;;;;;;3.20;2.00;;;14.40;91.50;;;;;;5072118;28;20427;-78
2022/07/17 00:13:01;;;;;;;4.20;2.17;;;14.30;91.50;;;;;;5073409;28;20439;-78
2022/07/17 00:15:27;;;;;;;10.03;2.10;;;14.30;91.70;;;;;;5073049;28;20810;-78
2022/07/17 00:17:53;;;;;;;4.47;2.10;;;14.20;91.50;;;;;;5072409;28;21161;-78
2022/07/17 00:20:19;;;;;;;4.60;1.97;;;14.20;91.60;;;;;;5072753;28;20524;-77
2022/07/17 00:22:46;;;;;;;5.13;2.10;;;14.20;91.70;;;;;;5068395;28;20230;-73
2022/07/17 00:25:12;;;;;;;3.97;1.83;;;14.20;91.80;;;;;;5073621;28;20205;-78
2022/07/17 00:27:38;;;;;;;4.90;2.00;;;14.20;91.70;;;;;;5071799;28;20414;-77
2022/07/17 00:30:05;;;;;;;4.20;2.07;;;14.20;91.60;;;;;;5070627;28;20185;-78
2022/07/17 00:32:30;;;;;;;5.40;2.50;;;14.20;91.60;;;;;;5071291;28;20177;-78
2022/07/17 00:34:57;;;;;;;4.37;2.33;;;14.20;91.90;;;;;;5071171;28;20438;-78
2022/07/17 00:37:22;;;;;;;4.60;2.20;;;14.10;91.70;;;;;;5069718;28;20219;-78
2022/07/17 00:39:48;;;;;;;5.20;2.30;;;14.10;91.90;;;;;;5070590;28;20490;-74
2022/07/17 00:42:15;;;;;;;6.13;2.43;;;14.00;92.20;;;;;;5070739;28;20277;-77
2022/07/17 00:44:42;;;;;;;4.30;2.00;;;13.90;92.40;;;;;;5070216;28;20204;-77
2022/07/17 00:47:19;;;;;;;6.20;3.07;;;13.90;92.40;;;;;;5070520;28;20939;-78
2022/07/17 00:49:46;;;;;;;4.40;2.40;;;13.80;92.70;;;;;;5079543;28;20499;-78
2022/07/17 00:52:13;;;;;;;4.20;2.23;;;13.80;92.80;;;;;;5074479;28;21042;-77
2022/07/17 00:54:41;;;;;;;6.30;1.97;;;13.80;92.80;;;;;;5069221;28;20442;-78
2022/07/17 00:57:10;;;;;;;4.83;2.20;;;13.70;93.00;;;;;;5074303;28;20438;-77
2022/07/17 00:59:36;;;;;;;6.50;2.70;;;13.80;93.00;;;;;;5069986;28;20544;-77
2022/07/17 01:02:07;;;;;;;4.57;2.73;;;13.80;92.60;;;;;;5069877;28;21034;-78
2022/07/17 01:04:33;;;;;;;4.47;2.53;;;13.80;92.90;;;;;;5070032;28;20936;-77
2022/07/17 01:07:01;;;;;;;7.13;2.87;;;13.70;92.80;;;;;;5068794;28;20525;-77
2022/07/17 01:09:28;;;;;;;7.17;3.10;;;13.70;93.10;;;;;;5070143;28;20932;-78
2022/07/17 01:11:55;;;;;;;10.00;3.60;;;13.60;93.20;;;;;;5069773;28;20422;-77
2022/07/17 01:14:22;;;;;;;8.10;4.80;;;13.60;93.40;;;;;;5069862;28;20443;-75
2022/07/17 01:16:49;;;;;;;25.90;4.73;;;13.70;93.60;;;;;;5069965;28;20938;-77
2022/07/17 01:19:15;;;;;;;9.67;4.33;;;13.60;93.50;;;;;;5069696;28;20976;-75
2022/07/17 01:21:44;;;;;;;10.53;3.80;;;13.50;93.50;;;;;;5069830;28;20450;-77
2022/07/17 01:24:10;;;;;;;7.80;3.80;;;13.40;93.60;;;;;;5064420;28;20780;-77
2022/07/17 01:26:36;;;;;;;11.90;4.20;;;13.40;93.80;;;;;;5069859;28;20940;-78
2022/07/17 01:29:02;;;;;;;8.40;3.80;;;13.40;94.00;;;;;;5069445;28;20415;-77
2022/07/17 01:31:28;;;;;;;5.43;3.23;;;13.30;94.00;;;;;;5069431;28;20185;-77
2022/07/17 01:33:54;;;;;;;6.77;3.53;;;13.30;94.10;;;;;;5069648;28;21009;-77
2022/07/17 01:36:23;;;;;;;5.00;3.03;;;13.20;94.10;;;;;;5070079;28;20181;-77
2022/07/17 01:38:49;;;;;;;10.13;4.10;;;13.20;94.00;;;;;;5069483;28;20229;-78
2022/07/17 01:41:15;;;;;;;7.10;4.20;;;13.20;94.10;;;;;;5069568;28;20447;-76
2022/07/17 01:43:41;;;;;;;8.40;3.60;;;13.20;94.40;;;;;;5069520;28;20204;-78
2022/07/17 01:46:06;;;;;;;10.13;4.30;;;13.10;94.20;;;;;;5069803;28;20181;-78
2022/07/17 01:48:32;;;;;;;4.83;2.83;;;13.10;94.50;;;;;;5069788;28;20201;-77
2022/07/17 01:50:58;;;;;;;10.83;3.73;;;13.10;94.60;;;;;;5069441;28;20189;-75
2022/07/17 01:53:24;;;;;;;4.93;2.90;;;13.10;94.80;;;;;;5069352;28;20235;-73
2022/07/17 01:55:49;;;;;;;7.40;2.67;;;13.00;94.60;;;;;;5074841;28;20181;-79
2022/07/17 01:58:15;;;;;;;5.17;3.13;;;13.00;94.80;;;;;;5069435;28;20216;-77
2022/07/17 02:00:41;;;;;;;6.40;3.27;;;13.00;94.70;;;;;;5069286;28;20181;-77
2022/07/17 02:03:07;;;;;;;4.90;2.60;;;13.00;95.00;;;;;;5069154;28;20196;-77
2022/07/17 02:05:33;;;;;;;3.73;2.27;;;13.00;95.20;;;;;;5070142;28;20442;-77
2022/07/17 02:07:58;;;;;;;4.63;2.53;;;13.00;94.70;;;;;;5072746;28;20169;-77
2022/07/17 02:10:24;;;;;;;6.77;2.70;;;12.90;94.70;;;;;;5073381;28;20185;-77
2022/07/17 02:12:49;;;;;;;4.57;2.43;;;12.90;95.00;;;;;;5073159;28;20744;-77
2022/07/17 02:15:15;;;;;;;3.53;1.87;;;12.90;95.20;;;;;;5073165;28;20204;-77
2022/07/17 02:17:42;;;;;;;4.30;2.17;;;12.90;95.20;;;;;;5073188;28;20566;-77
2022/07/17 02:20:09;;;;;;;5.80;2.80;;;12.80;95.30;;;;;;5073153;28;20923;-77
2022/07/17 02:22:35;;;;;;;5.47;2.10;;;12.80;95.30;;;;;;5066699;28;20933;-78
2022/07/17 02:25:01;;;;;;;6.30;2.60;;;12.80;95.20;;;;;;5072950;28;20492;-77
2022/07/17 02:27:26;;;;;;;6.70;2.90;;;12.90;95.50;;;;;;5072859;28;20411;-73
2022/07/17 02:29:52;;;;;;;5.50;2.33;;;12.70;95.20;;;;;;5070290;28;20189;-77
2022/07/17 02:32:18;;;;;;;5.10;2.30;;;12.70;95.50;;;;;;5071931;28;20170;-77
2022/07/17 02:34:43;;;;;;;10.17;2.53;;;12.80;95.50;;;;;;5071441;28;20204;-75
2022/07/17 02:37:10;;;;;;;8.00;2.90;;;12.70;95.50;;;;;;5073115;28;20657;-74
2022/07/17 02:39:35;;;;;;;14.93;2.93;;;12.80;95.40;;;;;;5072847;28;20220;-79
2022/07/17 02:42:01;;;;;;;6.13;2.20;;;12.70;95.40;;;;;;5083874;28;20442;-79
2022/07/17 02:44:26;;;;;;;5.03;2.33;;;12.70;95.60;;;;;;5099620;28;20236;-79
2022/07/17 02:46:52;;;;;;;8.30;2.87;;;12.60;95.50;;;;;;5114105;28;20203;-79
2022/07/17 02:49:18;;;;;;;5.07;2.47;;;12.60;95.70;;;;;;5101217;28;20170;-78
2022/07/17 02:51:43;;;;;;;4.30;2.57;;;12.60;96.00;;;;;;5100710;28;20184;-78
2022/07/17 02:54:09;;;;;;;7.40;3.33;;;12.50;96.10;;;;;;5101456;28;20205;-79
2022/07/17 02:56:34;;;;;;;8.67;3.73;;;12.40;96.20;;;;;;5100125;28;20165;-76
2022/07/17 02:59:00;;;;;;;7.03;1.93;;;12.40;96.40;;;;;;5084781;28;20709;-77
2022/07/17 03:01:26;;;;;;;5.90;2.70;;;12.40;96.20;;;;;;5072619;28;20260;-76
2022/07/17 03:03:51;;;;;;;3.70;2.50;;;12.40;96.40;;;;;;5072417;28;20575;-77
2022/07/17 03:06:17;;;;;;;3.87;2.40;;;12.40;96.60;;;;;;5072006;28;20318;-77
2022/07/17 03:08:43;;;;;;;6.17;2.40;;;12.30;96.50;;;;;;5072206;28;20664;-77
2022/07/17 03:11:08;;;;;;;8.97;2.63;;;12.30;96.70;;;;;;5071810;28;20203;-77
2022/07/17 03:13:34;;;;;;;4.37;2.30;;;12.30;96.60;;;;;;5071959;28;20216;-77
2022/07/17 03:15:59;;;;;;;5.53;2.63;;;12.30;96.80;;;;;;5072078;28;20177;-77
2022/07/17 03:18:25;;;;;;;4.33;2.83;;;12.30;96.60;;;;;;5070954;28;20250;-78
2022/07/17 03:20:51;;;;;;;6.37;2.23;;;12.30;96.80;;;;;;5071764;28;20215;-75
2022/07/17 03:23:16;;;;;;;3.97;2.23;;;12.30;96.70;;;;;;5071673;28;20228;-77
2022/07/17 03:25:42;;;;;;;8.90;2.97;;;12.30;96.50;;;;;;5071793;28;20208;-77
2022/07/17 03:28:07;;;;;;;5.93;2.90;;;12.30;96.50;;;;;;5080440;28;20187;-78
2022/07/17 03:30:33;;;;;;;9.27;3.33;;;12.30;96.50;;;;;;5077678;28;20779;-78
2022/07/17 03:32:59;;;;;;;8.10;2.60;;;12.30;96.60;;;;;;5071214;28;20873;-77
2022/07/17 03:35:24;;;;;;;3.50;2.47;;;12.30;96.90;;;;;;5084064;28;20610;-77
2022/07/17 03:37:50;;;;;;;3.40;2.03;;;12.20;96.90;;;;;;5072934;28;20185;-73
2022/07/17 03:40:15;;;;;;;5.50;3.00;;;12.20;97.20;;;;;;5080963;28;20219;-78
2022/07/17 03:42:41;;;;;;;5.40;2.60;;;12.20;97.10;;;;;;5090145;28;20287;-77
2022/07/17 03:45:07;;;;;;;8.77;3.07;;;12.10;97.10;;;;;;5071450;28;20729;-77
2022/07/17 03:47:33;;;;;;;7.83;2.87;;;12.10;97.30;;;;;;5071290;28;20177;-77
2022/07/17 03:49:59;;;;;;;6.07;2.20;;;12.20;97.40;;;;;;5076678;28;20501;-77
2022/07/17 03:52:24;;;;;;;6.60;2.30;;;12.10;97.40;;;;;;5080023;28;20655;-78
2022/07/17 03:54:50;;;;;;;4.33;2.50;;;12.10;97.60;;;;;;5071435;28;20212;-73
2022/07/17 03:57:16;;;;;;;3.87;2.10;;;12.10;97.80;;;;;;5082126;28;20191;-77
2022/07/17 03:59:41;;;;;;;4.40;2.43;;;12.10;97.80;;;;;;5071089;28;20212;-77
2022/07/17 04:02:07;;;;;;;5.23;2.50;;;12.10;97.70;;;;;;5070632;28;20471;-77
2022/07/17 04:04:32;;;;;;;10.53;2.87;;;12.00;97.80;;;;;;5071067;28;20197;-77
2022/07/17 04:06:58;;;;;;;4.13;2.33;;;12.00;98.10;;;;;;5071037;28;20185;-78
2022/07/17 04:09:24;;;;;;;5.20;2.47;;;12.00;97.80;;;;;;5070629;28;20220;-77
2022/07/17 04:11:49;;;;;;;8.47;2.70;;;12.00;98.20;;;;;;5070634;28;20665;-78
2022/07/17 04:14:15;;;;;;;5.90;2.77;;;12.10;97.90;;;;;;5070391;28;20197;-77
2022/07/17 04:16:41;;;;;;;6.30;2.67;;;12.10;98.00;;;;;;5070932;28;20222;-77
2022/07/17 04:19:07;;;;;;;7.20;3.37;;;12.10;97.90;;;;;;5069492;28;20708;-77
2022/07/17 04:21:32;;;;;;;4.17;2.50;;;12.10;97.90;;;;;;5070870;28;20427;-77
2022/07/17 04:23:58;;;;;;;7.53;2.83;;;12.10;98.10;;;;;;5059443;28;20201;-78
2022/07/17 04:26:23;;;;;;;5.20;2.90;;;12.20;98.10;;;;;;5070987;28;20188;-77
2022/07/17 04:28:49;;;;;;;5.03;2.43;;;12.30;98.20;;;;;;5070042;28;20181;-76
2022/07/17 04:31:15;;;;;;;4.70;2.40;;;12.30;97.80;;;;;;5070488;28;20298;-76
2022/07/17 04:33:40;;;;;;;8.90;2.57;;;12.30;98.00;;;;;;5070277;28;20215;-77
2022/07/17 04:36:06;;;;;;;5.40;2.13;;;12.40;98.10;;;;;;5070619;28;20212;-77
2022/07/17 04:38:32;;;;;;;7.97;3.30;;;12.50;98.00;;;;;;5070148;28;20291;-75
2022/07/17 04:40:57;;;;;;;3.03;2.23;;;12.50;97.90;;;;;;5070214;28;20184;-75
2022/07/17 04:43:23;;;;;;;5.20;2.27;;;12.60;97.90;;;;;;5070363;28;20213;-77
2022/07/17 04:45:49;;;;;;;4.77;2.40;;;12.60;97.60;;;;;;5068837;28;20185;-77
2022/07/17 04:48:14;;;;;;;6.03;2.70;;;12.60;97.30;;;;;;5068879;28;20474;-77
2022/07/17 04:50:40;;;;;;;5.30;3.10;;;12.60;97.50;;;;;;5068729;28;20571;-78
2022/07/17 04:53:06;;;;;;;3.93;2.20;;;12.60;97.90;;;;;;5069682;28;20192;-78
2022/07/17 04:55:31;;;;;;;4.90;3.03;;;12.70;98.00;;;;;;5076044;28;20237;-77
2022/07/17 04:57:57;;;;;;;4.57;2.57;;;12.70;98.00;;;;;;5073364;28;20204;-77
2022/07/17 05:00:23;;;;;;;4.73;3.13;;;12.70;97.90;;;;;;5070003;28;20645;-77
2022/07/17 05:02:48;;;;;;;5.13;2.73;;;12.80;97.40;;;;;;5069845;28;20240;-77
2022/07/17 05:05:14;;;;;;;5.47;2.53;;;12.80;97.50;;;;;;5069546;28;20717;-77
2022/07/17 05:07:40;;;;;;;3.97;2.13;;;12.90;97.60;;;;;;5070124;28;20212;-77
2022/07/17 05:10:06;;;;;;;3.97;2.37;;;12.90;97.10;;;;;;5069057;28;21019;-78
2022/07/17 05:12:31;;;;;;;5.10;2.87;;;13.00;97.50;;;;;;5069812;28;20173;-75
2022/07/17 05:14:58;;;;;;;5.20;3.30;;;13.10;98.00;;;;;;5069586;28;20443;-77
2022/07/17 05:17:24;;;;;;;4.57;2.70;;;13.20;97.50;;;;;;5069966;28;20176;-77
2022/07/17 05:19:49;;;;;;;4.77;2.37;;;13.20;97.90;;;;;;5069953;28;20963;-77
2022/07/17 05:22:15;;;;;;;6.70;3.70;;;13.40;98.00;;;;;;5083369;28;20305;-77
2022/07/17 05:24:41;;;;;;;8.83;3.33;;;13.50;97.70;;;;;;5060288;28;21039;-77
2022/07/17 05:27:06;;;;;;;5.50;3.10;;;13.60;97.90;;;;;;5069575;28;20189;-77
2022/07/17 05:29:32;;;;;;;7.67;3.67;;;13.60;97.90;;;;;;5068390;28;20188;-77
2022/07/17 05:31:57;;;;;;;6.30;3.13;;;13.70;97.70;;;;;;5069333;28;20558;-77
2022/07/17 05:34:23;;;;;;;4.03;2.40;;;13.80;97.80;;;;;;5069801;28;20249;-78
2022/07/17 05:36:49;;;;;;;5.97;2.93;;;13.80;97.60;;;;;;5069728;28;20177;-77
2022/07/17 05:39:14;;;;;;;5.10;2.63;;;13.90;97.30;;;;;;5069504;28;20564;-75
2022/07/17 05:41:40;;;;;;;8.10;2.60;;;13.90;97.10;;;;;;5072000;28;20184;-77
2022/07/17 05:44:06;;;;;;;4.03;2.67;;;14.00;96.80;;;;;;5073865;28;20208;-77
2022/07/17 05:46:31;;;;;;;4.20;2.33;;;14.10;96.80;;;;;;5086628;28;20190;-78
2022/07/17 05:48:57;;;;;;;3.83;2.13;;;14.20;96.70;;;;;;5074007;28;20843;-77
2022/07/17 05:51:23;;;;;;;4.00;2.33;;;14.30;95.00;;;;;;5073508;28;20212;-77
2022/07/17 05:53:49;;;;;;;6.17;2.87;;;14.40;95.00;;;;;;5072100;28;20247;-76
2022/07/17 05:56:14;;;;;;;9.03;2.63;;;14.60;95.00;;;;;;5085094;28;20199;-73
2022/07/17 05:58:40;;;;;;;4.70;2.57;;;14.70;94.60;;;;;;5073642;28;20237;-78
2022/07/17 06:01:06;;;;;;;6.13;2.70;;;14.70;94.80;;;;;;5073447;28;20331;-77
2022/07/17 06:03:31;;;;;;;4.07;2.30;;;14.90;95.20;;;;;;5073665;28;20212;-77
2022/07/17 06:05:57;;;;;;;2.80;1.90;;;15.00;94.60;;;;;;5073814;28;20546;-77
2022/07/17 06:08:22;;;;;;;5.60;2.33;;;15.10;93.70;;;;;;5073137;28;20185;-78
2022/07/17 06:10:48;;;;;;;5.73;2.83;;;15.20;93.10;;;;;;5073543;28;20277;-77
2022/07/17 06:13:14;;;;;;;5.03;2.57;;;15.40;93.20;;;;;;5073835;28;20181;-77
2022/07/17 06:15:39;;;;;;;8.70;2.30;;;15.50;92.30;;;;;;5074432;28;20642;-75
2022/07/17 06:18:05;;;;;;;4.10;2.30;;;15.60;92.30;;;;;;5072407;28;20204;-76
2022/07/17 06:20:31;;;;;;;5.00;2.10;;;15.70;92.10;;;;;;5075150;28;20181;-77
2022/07/17 06:22:57;;;;;;;6.17;2.50;;;15.80;92.10;;;;;;5075518;28;20185;-76
2022/07/17 06:25:23;;;;;;;3.30;1.73;;;15.90;92.40;;;;;;5076786;28;20181;-76
2022/07/17 06:27:49;;;;;;;5.40;2.37;;;16.00;92.20;;;;;;5076273;28;20423;-76
2022/07/17 06:30:16;;;;;;;3.83;2.10;;;16.10;91.60;;;;;;5076742;28;20419;-77
2022/07/17 06:32:42;;;;;;;4.93;2.30;;;16.30;90.50;;;;;;5075907;28;20257;-76
2022/07/17 06:35:08;;;;;;;3.53;2.20;;;16.50;90.10;;;;;;5074689;28;20780;-76
2022/07/17 06:37:34;;;;;;;4.63;2.33;;;16.60;89.50;;;;;;5076759;28;20446;-76
2022/07/17 06:40:00;;;;;;;5.30;2.13;;;16.60;90.00;;;;;;5075420;28;20463;-77
2022/07/17 06:42:26;;;;;;;7.90;2.37;;;16.70;89.40;;;;;;5074035;28;20888;-77
2022/07/17 06:44:52;;;;;;;5.50;2.80;;;16.80;89.00;;;;;;5074798;28;20201;-77
2022/07/17 06:47:18;;;;;;;8.30;2.27;;;16.90;89.50;;;;;;5074703;28;20554;-76
2022/07/17 06:49:44;;;;;;;5.20;2.07;;;17.00;88.00;;;;;;5072070;28;20709;-77
2022/07/17 06:52:10;;;;;;;4.40;2.30;;;17.20;87.50;;;;;;5070536;28;20459;-77
2022/07/17 06:54:35;;;;;;;3.40;1.77;;;17.40;86.20;;;;;;5073588;28;20204;-77
2022/07/17 06:57:01;;;;;;;3.00;1.87;;;17.60;84.40;;;;;;5084611;28;20181;-77
2022/07/17 06:59:27;;;;;;;5.13;2.47;;;17.60;85.20;;;;;;5072359;28;20243;-78
2022/07/17 07:01:52;;;;;;;2.53;1.50;;;17.80;84.00;;;;;;5072537;28;20535;-76
2022/07/17 07:04:18;;;;;;;3.60;1.73;;;17.90;83.30;;;;;;5071874;28;20193;-76
2022/07/17 07:06:44;;;;;;;2.83;1.60;;;18.10;82.70;;;;;;5086442;28;20230;-77
2022/07/17 07:09:12;;;;;;;3.50;1.93;;;18.20;82.20;;;;;;5070532;28;20688;-78
2022/07/17 07:11:39;;;;;;;3.20;1.90;;;18.50;81.60;;;;;;5072197;28;20250;-76
2022/07/17 07:14:06;;;;;;;14.93;1.93;;;18.70;79.50;;;;;;5072464;28;20480;-77
2022/07/17 07:16:32;;;;;;;2.43;1.60;;;18.90;79.20;;;;;;5072184;28;20423;-77
2022/07/17 07:18:57;;;;;;;4.00;1.83;;;19.20;78.30;;;;;;5072233;28;20521;-77
2022/07/17 07:21:25;;;;;;;3.60;1.60;;;19.40;76.10;;;;;;5070607;28;20717;-77
2022/07/17 07:23:51;;;;;;;3.03;1.50;;;19.60;76.00;;;;;;5059582;28;20634;-77
2022/07/17 07:26:16;;;;;;;2.87;1.27;;;19.70;74.50;;;;;;5072100;28;20514;-77
2022/07/17 07:28:42;;;;;;;3.33;1.70;;;20.00;72.00;;;;;;5072047;28;20299;-77
2022/07/17 07:31:08;;;;;;;2.87;1.43;;;20.40;71.60;;;;;;5071756;28;20200;-77
2022/07/17 07:33:34;;;;;;;3.67;1.80;;;20.70;72.40;;;;;;5072026;28;20251;-77
2022/07/17 07:35:59;;;;;;;2.10;1.27;;;21.10;70.70;;;;;;5071582;28;20177;-77
2022/07/17 07:38:25;;;;;;;6.70;1.70;;;21.70;69.10;;;;;;5071678;28;20255;-77
2022/07/17 07:40:51;;;;;;;3.93;1.20;;;22.00;67.90;;;;;;5071474;28;20658;-77
2022/07/17 07:43:16;;;;;;;3.53;1.60;;;22.30;69.20;;;;;;5071524;28;20192;-78
2022/07/17 07:45:42;;;;;;;15.17;1.67;;;23.50;65.20;;;;;;5071407;28;20543;-77
2022/07/17 07:48:08;;;;;;;2.87;1.50;;;24.80;63.60;;;;;;5071568;28;20669;-78
2022/07/17 07:50:33;;;;;;;2.43;1.40;;;26.80;58.20;;;;;;5071744;28;20318;-78
2022/07/17 07:52:59;;;;;;;11.75;2.72;;;27.30;57.30;;;;;;5071290;28;20176;-78
2022/07/17 07:55:25;;;;;;;4.70;1.88;;;27.60;56.30;;;;;;5076928;28;20176;-78
2022/07/17 07:58:11;;;;;;;12.30;1.67;;;27.60;56.80;;;;;;5077236;28;20553;-78
2022/07/17 08:00:38;;;;;;;7.28;1.70;;;28.50;53.30;;;;;;5071158;28;20606;-79
2022/07/17 08:03:04;;;;;;;3.63;1.58;;;29.00;52.40;;;;;;5069358;28;20181;-78
2022/07/17 08:05:30;;;;;;;3.03;1.45;;;29.70;51.30;;;;;;5069802;28;20218;-79
2022/07/17 08:07:57;;;;;;;3.05;1.50;;;29.40;52.70;;;;;;5070128;28;20188;-78
2022/07/17 08:10:22;;;;;;;3.53;1.67;;;29.40;52.10;;;;;;5075785;28;20264;-75
2022/07/17 08:12:48;;;;;;;3.67;1.75;;;29.80;51.50;;;;;;5079917;28;20259;-79
2022/07/17 08:15:19;;;;;;;12.50;2.03;;;30.00;50.50;;;;;;5071105;28;20192;-78
2022/07/17 08:17:46;;;;;;;2.63;1.40;;;30.50;49.70;;;;;;5070013;28;20184;-78
2022/07/17 08:20:13;;;;;;;3.13;1.70;;;30.40;49.70;;;;;;5071137;28;20191;-78
2022/07/17 08:22:39;;;;;;;4.63;1.67;;;30.80;49.00;;;;;;5065449;28;20173;-78
2022/07/17 08:25:05;;;;;;;3.72;1.75;;;31.70;47.70;;;;;;5064719;28;20207;-78
2022/07/17 08:27:41;;;;;;;1.88;0.90;;;30.60;49.00;;;;;;5070759;28;20176;-79
2022/07/17 08:30:09;;;;;;;12.85;2.10;;;28.90;50.80;;;;;;5070736;28;20346;-78
2022/07/17 08:32:35;;;;;;;3.33;1.75;;;28.90;51.60;;;;;;5070411;28;20205;-78
2022/07/17 08:35:01;;;;;;;4.88;1.65;;;28.90;51.70;;;;;;5071334;28;20707;-78
2022/07/17 08:37:27;;;;;;;3.53;1.85;;;29.70;50.60;;;;;;5071283;28;20188;-77
2022/07/17 08:39:53;;;;;;;3.75;1.50;;;29.30;51.30;;;;;;5071550;28;20280;-78
2022/07/17 08:42:18;;;;;;;5.88;1.60;;;29.20;51.50;;;;;;5072292;28;20184;-75
2022/07/17 08:44:46;;;;;;;3.17;1.70;;;28.80;52.00;;;;;;5071389;28;20188;-79
2022/07/17 08:47:13;;;;;;;3.33;1.80;;;29.60;50.90;;;;;;5072317;28;20177;-79
2022/07/17 08:49:44;;;;;;;4.18;1.40;;;29.60;52.10;;;;;;5073472;28;20181;-79
2022/07/17 08:52:13;;;;;;;3.50;1.95;;;29.40;52.00;;;;;;5073158;28;20564;-79
2022/07/17 08:54:39;;;;;;;2.05;1.05;;;28.60;51.70;;;;;;5081436;28;20335;-79
2022/07/17 08:57:05;;;;;;;3.45;1.50;;;28.80;50.70;;;;;;5084532;28;20218;-80
2022/07/17 08:59:31;;;;;;;3.08;1.33;;;28.90;50.60;;;;;;5073681;28;20285;-79
2022/07/17 09:02:00;;;;;;;2.58;1.45;;;29.20;51.00;;;;;;5073116;28;20181;-79
2022/07/17 09:04:26;;;;;;;3.08;1.67;;;29.20;49.20;;;;;;5071064;28;20188;-78
2022/07/17 09:07:03;;;;;;;3.67;1.40;;;28.60;50.60;;;;;;5070358;28;20184;-77
2022/07/17 09:09:30;;;;;;;10.73;1.73;;;28.50;50.90;;;;;;5070223;28;20168;-79
2022/07/17 09:12:01;;;;;;;2.70;1.35;;;28.70;52.20;;;;;;5070211;28;20598;-79
2022/07/17 09:14:38;;;;;;;3.55;1.98;;;28.70;50.90;;;;;;5070304;28;20196;-79
2022/07/17 09:17:05;;;;;;;4.95;1.40;;;28.80;51.90;;;;;;5069805;28;20544;-79
2022/07/17 09:19:31;;;;;;;2.75;1.52;;;29.10;51.10;;;;;;5087979;28;20201;-81
2022/07/17 09:22:04;;;;;;;4.78;1.63;;;28.90;50.30;;;;;;5095989;28;21116;-82
2022/07/17 09:24:43;;;;;;;2.85;1.55;;;29.10;50.10;;;;;;5096244;28;20219;-80
2022/07/17 09:27:10;;;;;;;3.13;1.65;;;28.70;51.00;;;;;;5107401;28;20167;-81
2022/07/17 09:29:52;;;;;;;6.25;1.70;;;27.90;51.90;;;;;;5095956;28;20237;-81
2022/07/17 09:32:20;;;;;;;2.53;1.50;;;27.70;52.50;;;;;;5096043;28;20195;-81
2022/07/17 09:34:50;;;;;;;2.80;0.95;;;27.80;52.50;;;;;;5094494;28;20199;-80
2022/07/17 09:37:16;;;;;;;5.95;2.03;;;28.20;51.00;;;;;;5073035;28;20187;-79
2022/07/17 09:39:42;;;;;;;2.72;1.48;;;28.70;50.60;;;;;;5070633;28;20223;-79
2022/07/17 09:42:09;;;;;;;3.97;1.77;;;28.70;49.90;;;;;;5070882;28;20294;-79
2022/07/17 09:44:34;;;;;;;2.50;1.48;;;27.90;51.40;;;;;;5070523;28;20726;-79
2022/07/17 09:47:01;;;;;;;5.45;1.77;;;28.50;50.30;;;;;;5071103;28;20260;-79
2022/07/17 09:49:28;;;;;;;3.92;1.42;;;28.10;52.00;;;;;;5069198;28;20214;-78
2022/07/17 09:51:54;;;;;;;5.05;1.77;;;27.90;51.00;;;;;;5070736;28;20181;-80
2022/07/17 09:54:22;;;;;;;3.42;2.38;;;28.20;50.70;;;;;;5083697;28;20722;-79
2022/07/17 09:56:51;;;;;;;2.50;1.52;;;28.40;50.40;;;;;;5082618;28;20214;-79
2022/07/17 09:59:18;;;;;;;9.35;2.10;;;28.50;49.90;;;;;;5069886;28;20689;-79
2022/07/17 10:01:49;;;;;;;3.65;1.85;;;27.60;52.00;;;;;;5070192;28;20488;-79
2022/07/17 10:04:16;;;;;;;2.58;1.40;;;27.70;51.60;;;;;;5070324;28;20241;-79
2022/07/17 10:06:42;;;;;;;3.58;1.55;;;28.40;50.60;;;;;;5070178;28;20173;-78
2022/07/17 10:09:08;;;;;;;5.35;1.70;;;28.30;50.20;;;;;;5068634;28;20560;-79
2022/07/17 10:11:37;;;;;;;8.70;2.35;;;28.20;50.40;;;;;;5068915;28;20786;-79
2022/07/17 10:14:13;;;;;;;5.97;1.88;;;28.30;49.90;;;;;;5070502;28;20251;-78
2022/07/17 10:16:40;;;;;;;3.08;1.30;;;28.50;48.90;;;;;;5070961;28;20184;-79
2022/07/17 10:19:44;;;;;;;3.53;1.95;;;28.50;47.50;;;;;;5070747;28;20196;-80
2022/07/17 10:22:09;;;;;;;3.80;1.70;;;28.10;49.10;;;;;;5062055;28;20180;-79
2022/07/17 10:24:46;;;;;;;4.18;1.80;;;27.80;49.80;;;;;;5059914;28;20204;-79
2022/07/17 10:27:45;;;;;;;3.17;1.38;;;27.60;50.00;;;;;;5071446;28;20243;-79
2022/07/17 10:30:13;;;;;;;5.90;1.73;;;27.60;47.80;;;;;;5087897;28;20183;-77
2022/07/17 10:32:39;;;;;;;2.40;1.40;;;26.80;49.10;;;;;;5074540;28;20564;-78
2022/07/17 10:35:07;;;;;;;2.90;1.33;;;26.80;50.20;;;;;;5073436;28;20704;-79
2022/07/17 10:37:40;;;;;;;8.10;1.10;;;26.60;48.40;;;;;;5073051;28;20551;-79
2022/07/17 10:40:17;;;;;;;2.20;1.27;;;27.00;48.90;;;;;;5073181;28;20201;-78
2022/07/17 10:42:43;;;;;;;6.13;1.33;;;26.80;49.40;;;;;;5073373;28;20177;-78
2022/07/17 10:45:10;;;;;;;3.60;1.63;;;26.90;48.40;;;;;;5072870;28;20189;-78
2022/07/17 10:47:54;;;;;;;2.80;1.20;;;26.60;49.80;;;;;;5074061;28;20478;-79
2022/07/17 10:50:25;;;;;;;2.37;1.00;;;26.60;48.20;;;;;;5073431;28;20767;-76
2022/07/17 10:53:23;;;;;;;3.53;1.53;;;26.80;45.60;;;;;;5087513;28;20448;-79
2022/07/17 10:55:58;;;;;;;2.37;1.23;;;26.70;48.00;;;;;;5081506;28;20829;-79
2022/07/17 10:58:44;;;;;;;2.83;1.50;;;26.40;50.40;;;;;;5072459;28;20962;-79
2022/07/17 11:01:12;;;;;;;2.40;1.20;;;26.40;51.40;;;;;;5072838;28;20411;-79
2022/07/17 11:04:07;;;;;;;2.23;1.00;;;26.60;49.80;;;;;;5077294;28;20521;-78
2022/07/17 11:06:37;;;;;;;2.43;1.23;;;26.70;46.80;;;;;;5073864;28;20939;-78
2022/07/17 11:09:10;;;;;;;2.77;1.40;;;26.70;47.60;;;;;;5072470;28;20434;-79
2022/07/17 11:11:41;;;;;;;1.97;1.13;;;27.00;45.80;;;;;;5072799;28;20434;-78
2022/07/17 11:14:18;;;;;;;6.17;1.40;;;26.90;45.80;;;;;;5072542;28;20465;-78
2022/07/17 11:16:57;;;;;;;2.20;1.10;;;26.70;46.10;;;;;;5072264;28;20907;-79
2022/07/17 11:19:34;;;;;;;2.87;1.20;;;26.80;47.30;;;;;;5076619;28;20955;-79
2022/07/17 11:22:02;;;;;;;5.30;1.70;;;26.90;48.50;;;;;;5075676;28;20520;-78
2022/07/17 11:24:42;;;;;;;3.70;1.07;;;26.70;50.10;;;;;;5070509;28;20471;-77
2022/07/17 11:27:17;;;;;;;3.40;1.10;;;26.40;48.80;;;;;;5072288;28;20418;-79
2022/07/17 11:29:43;;;;;;;2.93;1.10;;;26.60;48.80;;;;;;5072150;28;20437;-75
2022/07/17 11:32:09;;;;;;;2.40;1.13;;;26.60;50.00;;;;;;5071777;28;20927;-77
2022/07/17 11:34:35;;;;;;;2.70;1.00;;;26.90;48.80;;;;;;5071937;28;20200;-80
2022/07/17 11:37:02;;;;;;;2.40;1.30;;;27.20;47.50;;;;;;5082549;28;20184;-79
2022/07/17 11:39:45;;;;;;;1.93;1.07;;;27.30;46.30;;;;;;5074913;28;20212;-79
2022/07/17 11:42:14;;;;;;;1.90;1.03;;;27.40;46.60;;;;;;5074055;28;20632;-79
2022/07/17 11:44:41;;;;;;;2.63;1.27;;;27.40;46.50;;;;;;5089942;28;20200;-75
2022/07/17 11:47:08;;;;;;;2.80;1.33;;;27.70;46.00;;;;;;5087316;28;20196;-80
2022/07/17 11:49:35;;;;;;;2.43;1.03;;;27.70;45.60;;;;;;5076638;28;20202;-79
2022/07/17 11:52:18;;;;;;;2.40;1.00;;;27.50;45.10;;;;;;5071980;28;20269;-79
2022/07/17 11:54:51;;;;;;;2.60;1.13;;;27.20;44.80;;;;;;5071821;28;20279;-78
2022/07/17 11:57:18;;;;;;;3.60;1.20;;;27.20;47.70;;;;;;5065089;28;20634;-78
2022/07/17 11:59:45;;;;;;;8.63;1.80;;;27.40;47.50;;;;;;5072026;28;20240;-78
2022/07/17 12:02:17;;;;;;;2.40;1.10;;;27.50;47.60;;;;;;5072458;28;20566;-78
2022/07/17 12:04:54;;;;;;;2.10;1.00;;;28.00;43.50;;;;;;5072788;28;20649;-78
2022/07/17 12:07:21;;;;;;;2.30;1.30;;;27.80;44.50;;;;;;5075894;28;20168;-79
2022/07/17 12:09:47;;;;;;;2.10;1.30;;;27.90;46.80;;;;;;5087035;28;20211;-79
2022/07/17 12:12:24;;;;;;;2.33;1.20;;;27.90;46.50;;;;;;5072792;28;20247;-79
2022/07/17 12:14:53;;;;;;;2.70;1.23;;;28.10;48.60;;;;;;5071838;28;20212;-79
2022/07/17 12:17:19;;;;;;;2.07;1.07;;;28.30;46.30;;;;;;5071809;28;20173;-79
2022/07/17 12:19:45;;;;;;;3.27;1.50;;;28.60;44.50;;;;;;5074051;28;20577;-78
2022/07/17 12:22:11;;;;;;;3.10;1.47;;;28.20;46.20;;;;;;5073279;28;20180;-80
2022/07/17 12:24:39;;;;;;;2.13;1.10;;;28.10;45.80;;;;;;5072218;28;20201;-79
2022/07/17 12:27:08;;;;;;;2.57;1.30;;;28.10;47.00;;;;;;5074720;28;20668;-79
2022/07/17 12:29:34;;;;;;;1.90;1.00;;;28.20;44.80;;;;;;5073643;28;20207;-79
2022/07/17 12:32:00;;;;;;;2.47;1.00;;;28.30;43.50;;;;;;5072489;28;20672;-79
2022/07/17 12:34:26;;;;;;;3.80;1.33;;;28.30;46.90;;;;;;5074869;28;20199;-79
2022/07/17 12:36:51;;;;;;;2.65;1.27;;;28.20;47.00;;;;;;5079438;28;20589;-77
2022/07/17 12:39:17;;;;;;;7.82;1.23;;;28.50;46.90;;;;;;5072296;28;20208;-79
2022/07/17 12:41:42;;;;;;;2.22;1.10;;;28.60;43.70;;;;;;5072659;28;20177;-78
2022/07/17 12:44:08;;;;;;;3.45;1.20;;;28.60;44.50;;;;;;5074893;28;20201;-79
2022/07/17 12:46:34;;;;;;;5.75;1.20;;;28.60;46.60;;;;;;5073957;28;20188;-79